sensor_id;sensor_type;location;lat;lon;timestamp;P1;durP1;ratioP1;P2;durP2;ratioP2
27201;SDS011;14717;46.924;15.474;2023-08-12T00:00:46;4.35;;;2.53;;
27201;SDS011;14717;46.924;15.474;2023-08-12T00:05:37;3.37;;;2.23;;
27201;SDS011;14717;46.924;15.474;2023-08-12T00:08:04;4.28;;;2.20;;
27201;SDS011;14717;46.924;15.474;2023-08-12T00:12:56;3.83;;;2.22;;
27201;SDS011;14717;46.924;15.474;2023-08-12T00:17:46;4.50;;;2.50;;
27201;SDS011;14717;46.924;15.474;2023-08-12T00:20:12;3.95;;;2.28;;
27201;SDS011;14717;46.924;15.474;2023-08-12T00:25:03;5.50;;;2.60;;
27201;SDS011;14717;46.924;15.474;2023-08-12T00:29:54;4.43;;;2.20;;
27201;SDS011;14717;46.924;15.474;2023-08-12T00:34:45;4.13;;;2.35;;
27201;SDS011;14717;46.924;15.474;2023-08-12T00:37:10;4.00;;;2.28;;
27201;SDS011;14717;46.924;15.474;2023-08-12T00:42:01;4.60;;;2.50;;
27201;SDS011;14717;46.924;15.474;2023-08-12T00:46:51;3.93;;;2.23;;
27201;SDS011;14717;46.924;15.474;2023-08-12T00:51:43;5.20;;;2.30;;
27201;SDS011;14717;46.924;15.474;2023-08-12T00:54:12;3.88;;;2.17;;
27201;SDS011;14717;46.924;15.474;2023-08-12T00:56:39;3.72;;;2.42;;
27201;SDS011;14717;46.924;15.474;2023-08-12T01:01:32;4.10;;;1.98;;
27201;SDS011;14717;46.924;15.474;2023-08-12T01:06:23;3.67;;;2.07;;
27201;SDS011;14717;46.924;15.474;2023-08-12T01:08:49;3.75;;;2.50;;
27201;SDS011;14717;46.924;15.474;2023-08-12T01:18:55;2.80;;;1.98;;
27201;SDS011;14717;46.924;15.474;2023-08-12T01:21:22;4.93;;;2.83;;
27201;SDS011;14717;46.924;15.474;2023-08-12T01:48:36;5.97;;;3.10;;
27201;SDS011;14717;46.924;15.474;2023-08-12T02:28:23;3.78;;;2.40;;
27201;SDS011;14717;46.924;15.474;2023-08-12T03:03:56;3.63;;;2.20;;
27201;SDS011;14717;46.924;15.474;2023-08-12T04:55:50;4.63;;;2.40;;
27201;SDS011;14717;46.924;15.474;2023-08-12T05:06:37;4.20;;;2.30;;
27201;SDS011;14717;46.924;15.474;2023-08-12T05:20:39;5.22;;;2.65;;
27201;SDS011;14717;46.924;15.474;2023-08-12T05:30:10;4.80;;;2.97;;
27201;SDS011;14717;46.924;15.474;2023-08-12T05:36:24;5.40;;;2.83;;
27201;SDS011;14717;46.924;15.474;2023-08-12T05:39:37;4.63;;;2.88;;
27201;SDS011;14717;46.924;15.474;2023-08-12T06:50:13;4.28;;;2.70;;
27201;SDS011;14717;46.924;15.474;2023-08-12T07:20:41;4.72;;;2.63;;
27201;SDS011;14717;46.924;15.474;2023-08-12T07:26:31;5.15;;;3.13;;
27201;SDS011;14717;46.924;15.474;2023-08-12T07:28:57;5.82;;;2.70;;
27201;SDS011;14717;46.924;15.474;2023-08-12T07:31:22;5.45;;;2.90;;
27201;SDS011;14717;46.924;15.474;2023-08-12T07:33:47;5.13;;;2.85;;
27201;SDS011;14717;46.924;15.474;2023-08-12T07:36:13;4.43;;;2.80;;
27201;SDS011;14717;46.924;15.474;2023-08-12T07:38:38;4.43;;;2.50;;
27201;SDS011;14717;46.924;15.474;2023-08-12T07:41:03;3.53;;;2.30;;
27201;SDS011;14717;46.924;15.474;2023-08-12T07:43:29;5.93;;;2.58;;
27201;SDS011;14717;46.924;15.474;2023-08-12T07:45:54;3.55;;;2.15;;
27201;SDS011;14717;46.924;15.474;2023-08-12T07:48:20;4.35;;;2.60;;
27201;SDS011;14717;46.924;15.474;2023-08-12T07:50:46;4.90;;;2.30;;
27201;SDS011;14717;46.924;15.474;2023-08-12T07:53:14;5.03;;;2.70;;
27201;SDS011;14717;46.924;15.474;2023-08-12T07:55:40;3.58;;;2.60;;
27201;SDS011;14717;46.924;15.474;2023-08-12T07:58:06;5.00;;;2.67;;
27201;SDS011;14717;46.924;15.474;2023-08-12T08:00:32;4.40;;;2.58;;
27201;SDS011;14717;46.924;15.474;2023-08-12T08:02:58;4.55;;;2.70;;
27201;SDS011;14717;46.924;15.474;2023-08-12T08:05:23;6.05;;;2.60;;
27201;SDS011;14717;46.924;15.474;2023-08-12T08:07:49;4.57;;;2.70;;
27201;SDS011;14717;46.924;15.474;2023-08-12T08:10:14;4.32;;;2.80;;
27201;SDS011;14717;46.924;15.474;2023-08-12T08:12:40;4.60;;;2.50;;
27201;SDS011;14717;46.924;15.474;2023-08-12T08:15:05;3.90;;;2.42;;
27201;SDS011;14717;46.924;15.474;2023-08-12T08:17:31;5.50;;;2.40;;
27201;SDS011;14717;46.924;15.474;2023-08-12T08:19:56;3.55;;;2.25;;
27201;SDS011;14717;46.924;15.474;2023-08-12T08:22:21;4.93;;;2.45;;
27201;SDS011;14717;46.924;15.474;2023-08-12T08:24:47;4.85;;;2.75;;
27201;SDS011;14717;46.924;15.474;2023-08-12T08:27:12;4.93;;;2.60;;
27201;SDS011;14717;46.924;15.474;2023-08-12T08:29:38;4.78;;;2.70;;
27201;SDS011;14717;46.924;15.474;2023-08-12T08:32:03;3.85;;;2.63;;
27201;SDS011;14717;46.924;15.474;2023-08-12T08:34:29;3.78;;;2.50;;
27201;SDS011;14717;46.924;15.474;2023-08-12T08:36:54;3.88;;;2.33;;
27201;SDS011;14717;46.924;15.474;2023-08-12T08:39:20;4.43;;;2.50;;
27201;SDS011;14717;46.924;15.474;2023-08-12T08:41:46;4.13;;;2.45;;
27201;SDS011;14717;46.924;15.474;2023-08-12T08:44:12;6.07;;;2.75;;
27201;SDS011;14717;46.924;15.474;2023-08-12T08:46:40;5.18;;;2.33;;
27201;SDS011;14717;46.924;15.474;2023-08-12T08:49:06;3.58;;;2.13;;
27201;SDS011;14717;46.924;15.474;2023-08-12T08:51:33;4.28;;;2.40;;
27201;SDS011;14717;46.924;15.474;2023-08-12T08:53:59;4.50;;;2.50;;
27201;SDS011;14717;46.924;15.474;2023-08-12T08:56:29;4.53;;;2.60;;
27201;SDS011;14717;46.924;15.474;2023-08-12T08:58:56;5.22;;;2.42;;
27201;SDS011;14717;46.924;15.474;2023-08-12T09:01:21;2.90;;;2.05;;
27201;SDS011;14717;46.924;15.474;2023-08-12T09:03:49;3.97;;;2.40;;
27201;SDS011;14717;46.924;15.474;2023-08-12T09:06:18;4.10;;;2.10;;
27201;SDS011;14717;46.924;15.474;2023-08-12T09:08:45;5.38;;;2.08;;
27201;SDS011;14717;46.924;15.474;2023-08-12T09:11:13;3.30;;;2.03;;
27201;SDS011;14717;46.924;15.474;2023-08-12T09:13:39;4.03;;;2.22;;
27201;SDS011;14717;46.924;15.474;2023-08-12T09:16:04;4.22;;;2.40;;
27201;SDS011;14717;46.924;15.474;2023-08-12T09:18:30;3.75;;;2.13;;
27201;SDS011;14717;46.924;15.474;2023-08-12T09:20:56;6.43;;;2.45;;
27201;SDS011;14717;46.924;15.474;2023-08-12T09:23:22;3.30;;;2.10;;
27201;SDS011;14717;46.924;15.474;2023-08-12T09:25:47;3.90;;;2.13;;
27201;SDS011;14717;46.924;15.474;2023-08-12T09:28:13;3.47;;;2.10;;
27201;SDS011;14717;46.924;15.474;2023-08-12T09:30:39;5.03;;;2.50;;
27201;SDS011;14717;46.924;15.474;2023-08-12T09:33:05;3.00;;;2.08;;
27201;SDS011;14717;46.924;15.474;2023-08-12T09:38:10;3.65;;;2.17;;
27201;SDS011;14717;46.924;15.474;2023-08-12T09:40:36;3.70;;;2.20;;
27201;SDS011;14717;46.924;15.474;2023-08-12T09:43:02;3.65;;;2.25;;
27201;SDS011;14717;46.924;15.474;2023-08-12T09:45:29;5.18;;;2.25;;
27201;SDS011;14717;46.924;15.474;2023-08-12T09:47:55;4.82;;;2.28;;
27201;SDS011;14717;46.924;15.474;2023-08-12T09:50:21;3.92;;;2.35;;
27201;SDS011;14717;46.924;15.474;2023-08-12T09:52:48;3.38;;;2.20;;
27201;SDS011;14717;46.924;15.474;2023-08-12T09:55:15;4.38;;;2.50;;
27201;SDS011;14717;46.924;15.474;2023-08-12T09:57:42;6.22;;;2.40;;
27201;SDS011;14717;46.924;15.474;2023-08-12T10:00:11;4.55;;;2.30;;
27201;SDS011;14717;46.924;15.474;2023-08-12T10:02:41;4.80;;;2.50;;
27201;SDS011;14717;46.924;15.474;2023-08-12T10:05:11;4.15;;;2.20;;
27201;SDS011;14717;46.924;15.474;2023-08-12T10:07:46;3.65;;;2.30;;
27201;SDS011;14717;46.924;15.474;2023-08-12T10:10:12;5.95;;;2.25;;
27201;SDS011;14717;46.924;15.474;2023-08-12T10:12:39;3.63;;;2.28;;
27201;SDS011;14717;46.924;15.474;2023-08-12T10:15:05;5.25;;;2.20;;
27201;SDS011;14717;46.924;15.474;2023-08-12T10:17:32;4.38;;;2.30;;
27201;SDS011;14717;46.924;15.474;2023-08-12T10:19:58;4.70;;;2.20;;
27201;SDS011;14717;46.924;15.474;2023-08-12T10:22:33;3.90;;;2.60;;
27201;SDS011;14717;46.924;15.474;2023-08-12T10:25:01;3.65;;;2.42;;
27201;SDS011;14717;46.924;15.474;2023-08-12T10:27:28;5.45;;;2.50;;
27201;SDS011;14717;46.924;15.474;2023-08-12T10:29:55;3.42;;;2.20;;
27201;SDS011;14717;46.924;15.474;2023-08-12T10:32:25;3.30;;;2.15;;
27201;SDS011;14717;46.924;15.474;2023-08-12T10:34:55;4.03;;;2.20;;
27201;SDS011;14717;46.924;15.474;2023-08-12T10:37:24;2.90;;;1.92;;
27201;SDS011;14717;46.924;15.474;2023-08-12T10:39:54;3.97;;;2.33;;
27201;SDS011;14717;46.924;15.474;2023-08-12T10:45:18;3.90;;;2.30;;
27201;SDS011;14717;46.924;15.474;2023-08-12T10:50:25;4.05;;;2.20;;
27201;SDS011;14717;46.924;15.474;2023-08-12T10:52:52;5.65;;;2.40;;
27201;SDS011;14717;46.924;15.474;2023-08-12T10:55:23;5.38;;;2.40;;
27201;SDS011;14717;46.924;15.474;2023-08-12T10:57:53;3.55;;;2.30;;
27201;SDS011;14717;46.924;15.474;2023-08-12T11:00:20;3.15;;;2.20;;
27201;SDS011;14717;46.924;15.474;2023-08-12T11:02:49;4.22;;;2.38;;
27201;SDS011;14717;46.924;15.474;2023-08-12T11:05:16;3.97;;;2.30;;
27201;SDS011;14717;46.924;15.474;2023-08-12T11:07:47;5.65;;;2.28;;
27201;SDS011;14717;46.924;15.474;2023-08-12T11:10:17;3.63;;;2.00;;
27201;SDS011;14717;46.924;15.474;2023-08-12T11:15:16;3.88;;;2.22;;
27201;SDS011;14717;46.924;15.474;2023-08-12T11:17:42;2.78;;;1.80;;
27201;SDS011;14717;46.924;15.474;2023-08-12T11:20:09;3.97;;;2.10;;
27201;SDS011;14717;46.924;15.474;2023-08-12T11:22:36;3.72;;;2.00;;
27201;SDS011;14717;46.924;15.474;2023-08-12T11:25:04;3.42;;;2.28;;
27201;SDS011;14717;46.924;15.474;2023-08-12T11:30:02;3.60;;;2.10;;
27201;SDS011;14717;46.924;15.474;2023-08-12T11:32:28;3.95;;;2.20;;
27201;SDS011;14717;46.924;15.474;2023-08-12T11:34:54;3.80;;;2.10;;
27201;SDS011;14717;46.924;15.474;2023-08-12T11:37:19;3.38;;;2.10;;
27201;SDS011;14717;46.924;15.474;2023-08-12T11:39:45;2.90;;;1.90;;
27201;SDS011;14717;46.924;15.474;2023-08-12T11:42:10;3.47;;;2.20;;
27201;SDS011;14717;46.924;15.474;2023-08-12T11:44:36;4.50;;;1.85;;
27201;SDS011;14717;46.924;15.474;2023-08-12T11:47:01;4.32;;;2.08;;
27201;SDS011;14717;46.924;15.474;2023-08-12T11:49:27;5.82;;;2.15;;
27201;SDS011;14717;46.924;15.474;2023-08-12T11:51:52;3.47;;;2.00;;
27201;SDS011;14717;46.924;15.474;2023-08-12T11:54:17;3.15;;;2.17;;
27201;SDS011;14717;46.924;15.474;2023-08-12T11:56:43;3.58;;;2.17;;
27201;SDS011;14717;46.924;15.474;2023-08-12T11:59:09;3.72;;;2.30;;
27201;SDS011;14717;46.924;15.474;2023-08-12T12:01:35;3.83;;;2.10;;
27201;SDS011;14717;46.924;15.474;2023-08-12T12:04:01;3.22;;;1.95;;
27201;SDS011;14717;46.924;15.474;2023-08-12T12:06:30;3.85;;;1.92;;
27201;SDS011;14717;46.924;15.474;2023-08-12T12:09:11;3.53;;;1.90;;
27201;SDS011;14717;46.924;15.474;2023-08-12T12:11:37;4.35;;;2.13;;
27201;SDS011;14717;46.924;15.474;2023-08-12T12:14:04;4.80;;;2.13;;
27201;SDS011;14717;46.924;15.474;2023-08-12T12:16:44;2.70;;;1.73;;
27201;SDS011;14717;46.924;15.474;2023-08-12T12:19:14;3.13;;;2.00;;
27201;SDS011;14717;46.924;15.474;2023-08-12T12:21:42;4.03;;;1.88;;
27201;SDS011;14717;46.924;15.474;2023-08-12T12:24:09;3.30;;;2.03;;
27201;SDS011;14717;46.924;15.474;2023-08-12T12:26:35;5.60;;;2.00;;
27201;SDS011;14717;46.924;15.474;2023-08-12T12:29:04;3.90;;;1.75;;
27201;SDS011;14717;46.924;15.474;2023-08-12T12:31:34;3.05;;;1.80;;
27201;SDS011;14717;46.924;15.474;2023-08-12T12:34:01;4.35;;;1.90;;
27201;SDS011;14717;46.924;15.474;2023-08-12T12:36:28;3.05;;;1.70;;
27201;SDS011;14717;46.924;15.474;2023-08-12T12:38:54;3.97;;;1.60;;
27201;SDS011;14717;46.924;15.474;2023-08-12T12:41:19;2.85;;;1.60;;
27201;SDS011;14717;46.924;15.474;2023-08-12T12:43:45;2.78;;;1.55;;
27201;SDS011;14717;46.924;15.474;2023-08-12T12:46:10;3.15;;;1.80;;
27201;SDS011;14717;46.924;15.474;2023-08-12T12:48:36;2.47;;;1.50;;
27201;SDS011;14717;46.924;15.474;2023-08-12T12:51:01;2.88;;;1.70;;
27201;SDS011;14717;46.924;15.474;2023-08-12T12:53:27;3.85;;;1.83;;
27201;SDS011;14717;46.924;15.474;2023-08-12T12:55:52;2.72;;;1.50;;
27201;SDS011;14717;46.924;15.474;2023-08-12T12:58:18;3.17;;;1.63;;
27201;SDS011;14717;46.924;15.474;2023-08-12T13:00:43;3.22;;;1.85;;
27201;SDS011;14717;46.924;15.474;2023-08-12T13:03:08;3.03;;;1.80;;
27201;SDS011;14717;46.924;15.474;2023-08-12T13:05:34;2.80;;;1.88;;
27201;SDS011;14717;46.924;15.474;2023-08-12T13:07:59;2.78;;;1.98;;
27201;SDS011;14717;46.924;15.474;2023-08-12T13:10:25;3.00;;;1.85;;
27201;SDS011;14717;46.924;15.474;2023-08-12T13:12:50;3.45;;;1.77;;
27201;SDS011;14717;46.924;15.474;2023-08-12T13:15:16;3.13;;;2.05;;
27201;SDS011;14717;46.924;15.474;2023-08-12T13:17:41;2.70;;;1.90;;
27201;SDS011;14717;46.924;15.474;2023-08-12T13:20:07;12.40;;;2.08;;
27201;SDS011;14717;46.924;15.474;2023-08-12T13:22:33;3.55;;;1.77;;
27201;SDS011;14717;46.924;15.474;2023-08-12T13:24:58;4.38;;;1.63;;
27201;SDS011;14717;46.924;15.474;2023-08-12T13:27:24;7.22;;;2.00;;
27201;SDS011;14717;46.924;15.474;2023-08-12T13:29:49;2.50;;;1.60;;
27201;SDS011;14717;46.924;15.474;2023-08-12T13:32:14;4.32;;;1.70;;
27201;SDS011;14717;46.924;15.474;2023-08-12T13:34:40;3.38;;;1.58;;
27201;SDS011;14717;46.924;15.474;2023-08-12T13:37:08;3.35;;;1.90;;
27201;SDS011;14717;46.924;15.474;2023-08-12T13:39:33;3.00;;;1.77;;
27201;SDS011;14717;46.924;15.474;2023-08-12T13:41:59;3.28;;;1.88;;
27201;SDS011;14717;46.924;15.474;2023-08-12T13:44:24;3.28;;;1.98;;
27201;SDS011;14717;46.924;15.474;2023-08-12T13:46:50;5.60;;;2.20;;
27201;SDS011;14717;46.924;15.474;2023-08-12T13:49:15;3.00;;;1.70;;
27201;SDS011;14717;46.924;15.474;2023-08-12T13:51:40;6.32;;;1.98;;
27201;SDS011;14717;46.924;15.474;2023-08-12T13:54:06;3.15;;;1.70;;
27201;SDS011;14717;46.924;15.474;2023-08-12T13:56:31;2.97;;;1.85;;
27201;SDS011;14717;46.924;15.474;2023-08-12T13:58:56;3.28;;;1.90;;
27201;SDS011;14717;46.924;15.474;2023-08-12T14:01:22;4.15;;;1.80;;
27201;SDS011;14717;46.924;15.474;2023-08-12T14:03:47;3.45;;;1.73;;
27201;SDS011;14717;46.924;15.474;2023-08-12T14:06:13;2.90;;;1.73;;
27201;SDS011;14717;46.924;15.474;2023-08-12T14:08:38;3.55;;;1.80;;
27201;SDS011;14717;46.924;15.474;2023-08-12T14:11:03;2.50;;;1.40;;
27201;SDS011;14717;46.924;15.474;2023-08-12T14:13:29;3.30;;;1.88;;
27201;SDS011;14717;46.924;15.474;2023-08-12T14:15:54;3.17;;;1.70;;
27201;SDS011;14717;46.924;15.474;2023-08-12T14:18:20;2.70;;;1.67;;
27201;SDS011;14717;46.924;15.474;2023-08-12T14:20:45;3.10;;;1.90;;
27201;SDS011;14717;46.924;15.474;2023-08-12T14:23:10;2.35;;;1.48;;
27201;SDS011;14717;46.924;15.474;2023-08-12T14:25:36;2.90;;;1.70;;
27201;SDS011;14717;46.924;15.474;2023-08-12T14:28:01;2.30;;;1.52;;
27201;SDS011;14717;46.924;15.474;2023-08-12T14:30:26;3.92;;;2.33;;
27201;SDS011;14717;46.924;15.474;2023-08-12T14:32:52;3.95;;;1.80;;
27201;SDS011;14717;46.924;15.474;2023-08-12T14:35:18;3.92;;;1.95;;
27201;SDS011;14717;46.924;15.474;2023-08-12T14:37:43;2.83;;;1.63;;
27201;SDS011;14717;46.924;15.474;2023-08-12T14:40:09;3.45;;;1.60;;
27201;SDS011;14717;46.924;15.474;2023-08-12T14:42:34;2.92;;;1.48;;
27201;SDS011;14717;46.924;15.474;2023-08-12T14:45:00;4.03;;;1.70;;
27201;SDS011;14717;46.924;15.474;2023-08-12T14:47:25;3.40;;;1.63;;
27201;SDS011;14717;46.924;15.474;2023-08-12T14:49:50;3.33;;;1.85;;
27201;SDS011;14717;46.924;15.474;2023-08-12T14:52:18;2.97;;;1.70;;
27201;SDS011;14717;46.924;15.474;2023-08-12T14:54:45;3.10;;;1.75;;
27201;SDS011;14717;46.924;15.474;2023-08-12T14:57:10;2.83;;;1.70;;
27201;SDS011;14717;46.924;15.474;2023-08-12T14:59:36;2.70;;;1.65;;
27201;SDS011;14717;46.924;15.474;2023-08-12T15:02:01;2.25;;;1.60;;
27201;SDS011;14717;46.924;15.474;2023-08-12T15:04:27;3.13;;;1.90;;
27201;SDS011;14717;46.924;15.474;2023-08-12T15:06:52;3.58;;;1.70;;
27201;SDS011;14717;46.924;15.474;2023-08-12T15:09:18;3.90;;;1.90;;
27201;SDS011;14717;46.924;15.474;2023-08-12T15:11:43;3.28;;;1.70;;
27201;SDS011;14717;46.924;15.474;2023-08-12T15:14:08;2.65;;;1.67;;
27201;SDS011;14717;46.924;15.474;2023-08-12T15:16:34;4.25;;;1.73;;
27201;SDS011;14717;46.924;15.474;2023-08-12T15:18:59;4.43;;;2.00;;
27201;SDS011;14717;46.924;15.474;2023-08-12T15:21:25;2.90;;;1.83;;
27201;SDS011;14717;46.924;15.474;2023-08-12T15:23:50;3.95;;;1.80;;
27201;SDS011;14717;46.924;15.474;2023-08-12T15:26:16;2.95;;;1.42;;
27201;SDS011;14717;46.924;15.474;2023-08-12T15:28:42;2.63;;;1.63;;
27201;SDS011;14717;46.924;15.474;2023-08-12T15:31:07;3.08;;;1.63;;
27201;SDS011;14717;46.924;15.474;2023-08-12T15:33:33;3.90;;;2.00;;
27201;SDS011;14717;46.924;15.474;2023-08-12T15:35:58;2.42;;;1.67;;
27201;SDS011;14717;46.924;15.474;2023-08-12T15:38:24;2.97;;;1.90;;
27201;SDS011;14717;46.924;15.474;2023-08-12T15:40:49;2.25;;;1.70;;
27201;SDS011;14717;46.924;15.474;2023-08-12T15:43:15;4.13;;;1.67;;
27201;SDS011;14717;46.924;15.474;2023-08-12T15:45:40;4.68;;;1.90;;
27201;SDS011;14717;46.924;15.474;2023-08-12T15:48:07;3.28;;;1.75;;
27201;SDS011;14717;46.924;15.474;2023-08-12T15:50:32;2.83;;;1.80;;
27201;SDS011;14717;46.924;15.474;2023-08-12T15:52:58;4.72;;;1.90;;
27201;SDS011;14717;46.924;15.474;2023-08-12T15:55:23;2.53;;;1.70;;
27201;SDS011;14717;46.924;15.474;2023-08-12T15:57:49;2.67;;;1.63;;
27201;SDS011;14717;46.924;15.474;2023-08-12T16:00:14;3.10;;;1.95;;
27201;SDS011;14717;46.924;15.474;2023-08-12T16:02:40;3.40;;;1.60;;
27201;SDS011;14717;46.924;15.474;2023-08-12T16:05:05;3.38;;;1.92;;
27201;SDS011;14717;46.924;15.474;2023-08-12T16:07:31;7.15;;;2.38;;
27201;SDS011;14717;46.924;15.474;2023-08-12T16:09:57;3.40;;;1.85;;
27201;SDS011;14717;46.924;15.474;2023-08-12T16:12:22;3.45;;;2.00;;
27201;SDS011;14717;46.924;15.474;2023-08-12T16:14:48;2.70;;;1.70;;
27201;SDS011;14717;46.924;15.474;2023-08-12T16:17:13;3.95;;;1.90;;
27201;SDS011;14717;46.924;15.474;2023-08-12T16:19:38;2.75;;;1.83;;
27201;SDS011;14717;46.924;15.474;2023-08-12T16:22:04;2.92;;;1.88;;
27201;SDS011;14717;46.924;15.474;2023-08-12T16:24:29;3.00;;;1.88;;
27201;SDS011;14717;46.924;15.474;2023-08-12T16:26:55;3.03;;;1.75;;
27201;SDS011;14717;46.924;15.474;2023-08-12T16:29:20;6.10;;;1.83;;
27201;SDS011;14717;46.924;15.474;2023-08-12T16:31:45;4.13;;;2.05;;
27201;SDS011;14717;46.924;15.474;2023-08-12T16:34:11;3.00;;;1.77;;
27201;SDS011;14717;46.924;15.474;2023-08-12T16:36:36;4.20;;;2.03;;
27201;SDS011;14717;46.924;15.474;2023-08-12T16:39:02;2.80;;;1.92;;
27201;SDS011;14717;46.924;15.474;2023-08-12T16:41:28;3.17;;;1.83;;
27201;SDS011;14717;46.924;15.474;2023-08-12T16:43:53;3.00;;;1.95;;
27201;SDS011;14717;46.924;15.474;2023-08-12T16:46:19;3.38;;;2.08;;
27201;SDS011;14717;46.924;15.474;2023-08-12T16:48:47;5.40;;;2.08;;
27201;SDS011;14717;46.924;15.474;2023-08-12T16:51:12;3.45;;;1.90;;
27201;SDS011;14717;46.924;15.474;2023-08-12T16:53:38;6.10;;;2.15;;
27201;SDS011;14717;46.924;15.474;2023-08-12T16:56:03;2.75;;;1.65;;
27201;SDS011;14717;46.924;15.474;2023-08-12T16:58:30;3.17;;;1.83;;
27201;SDS011;14717;46.924;15.474;2023-08-12T17:00:56;3.25;;;2.00;;
27201;SDS011;14717;46.924;15.474;2023-08-12T17:03:21;3.03;;;2.00;;
27201;SDS011;14717;46.924;15.474;2023-08-12T17:05:46;4.15;;;1.80;;
27201;SDS011;14717;46.924;15.474;2023-08-12T17:08:12;3.33;;;1.75;;
27201;SDS011;14717;46.924;15.474;2023-08-12T17:10:37;4.85;;;2.00;;
27201;SDS011;14717;46.924;15.474;2023-08-12T17:13:04;4.57;;;1.98;;
27201;SDS011;14717;46.924;15.474;2023-08-12T17:15:29;3.13;;;1.75;;
27201;SDS011;14717;46.924;15.474;2023-08-12T17:17:55;3.10;;;1.92;;
27201;SDS011;14717;46.924;15.474;2023-08-12T17:20:20;2.83;;;1.95;;
27201;SDS011;14717;46.924;15.474;2023-08-12T17:22:46;4.85;;;1.85;;
27201;SDS011;14717;46.924;15.474;2023-08-12T17:25:11;4.15;;;2.00;;
27201;SDS011;14717;46.924;15.474;2023-08-12T17:27:36;3.42;;;2.10;;
27201;SDS011;14717;46.924;15.474;2023-08-12T17:30:02;3.85;;;2.03;;
27201;SDS011;14717;46.924;15.474;2023-08-12T17:32:28;3.50;;;2.03;;
27201;SDS011;14717;46.924;15.474;2023-08-12T17:34:53;4.32;;;2.28;;
27201;SDS011;14717;46.924;15.474;2023-08-12T17:37:21;4.03;;;2.00;;
27201;SDS011;14717;46.924;15.474;2023-08-12T17:39:47;3.17;;;2.13;;
27201;SDS011;14717;46.924;15.474;2023-08-12T17:42:12;3.50;;;2.30;;
27201;SDS011;14717;46.924;15.474;2023-08-12T17:44:38;3.67;;;1.83;;
27201;SDS011;14717;46.924;15.474;2023-08-12T17:47:03;3.72;;;2.15;;
27201;SDS011;14717;46.924;15.474;2023-08-12T17:49:29;4.45;;;2.25;;
27201;SDS011;14717;46.924;15.474;2023-08-12T17:51:54;4.45;;;1.98;;
27201;SDS011;14717;46.924;15.474;2023-08-12T17:54:19;3.50;;;2.15;;
27201;SDS011;14717;46.924;15.474;2023-08-12T17:56:45;3.15;;;2.10;;
27201;SDS011;14717;46.924;15.474;2023-08-12T17:59:10;4.95;;;2.40;;
27201;SDS011;14717;46.924;15.474;2023-08-12T18:01:36;3.97;;;2.30;;
27201;SDS011;14717;46.924;15.474;2023-08-12T18:04:01;5.57;;;2.60;;
27201;SDS011;14717;46.924;15.474;2023-08-12T18:06:26;4.82;;;2.88;;
27201;SDS011;14717;46.924;15.474;2023-08-12T18:08:52;5.15;;;2.60;;
27201;SDS011;14717;46.924;15.474;2023-08-12T18:11:18;4.85;;;2.70;;
27201;SDS011;14717;46.924;15.474;2023-08-12T18:13:43;8.75;;;2.83;;
27201;SDS011;14717;46.924;15.474;2023-08-12T18:16:09;3.67;;;2.60;;
27201;SDS011;14717;46.924;15.474;2023-08-12T18:18:34;3.90;;;2.55;;
27201;SDS011;14717;46.924;15.474;2023-08-12T18:20:59;4.30;;;2.25;;
27201;SDS011;14717;46.924;15.474;2023-08-12T18:23:25;5.00;;;3.10;;
27201;SDS011;14717;46.924;15.474;2023-08-12T18:25:52;4.80;;;2.60;;
27201;SDS011;14717;46.924;15.474;2023-08-12T18:28:17;4.22;;;2.78;;
27201;SDS011;14717;46.924;15.474;2023-08-12T18:30:43;5.53;;;2.67;;
27201;SDS011;14717;46.924;15.474;2023-08-12T18:33:09;4.13;;;2.20;;
27201;SDS011;14717;46.924;15.474;2023-08-12T18:35:35;4.50;;;2.70;;
27201;SDS011;14717;46.924;15.474;2023-08-12T18:38:00;3.83;;;2.45;;
27201;SDS011;14717;46.924;15.474;2023-08-12T18:40:26;4.80;;;2.30;;
27201;SDS011;14717;46.924;15.474;2023-08-12T18:42:53;3.67;;;2.33;;
27201;SDS011;14717;46.924;15.474;2023-08-12T18:45:19;3.80;;;2.40;;
27201;SDS011;14717;46.924;15.474;2023-08-12T18:47:44;6.07;;;2.67;;
27201;SDS011;14717;46.924;15.474;2023-08-12T18:50:10;4.53;;;2.63;;
27201;SDS011;14717;46.924;15.474;2023-08-12T18:52:36;5.25;;;2.25;;
27201;SDS011;14717;46.924;15.474;2023-08-12T18:55:02;4.97;;;2.88;;
27201;SDS011;14717;46.924;15.474;2023-08-12T18:57:28;6.55;;;2.83;;
27201;SDS011;14717;46.924;15.474;2023-08-12T18:59:54;4.70;;;2.55;;
27201;SDS011;14717;46.924;15.474;2023-08-12T19:02:20;4.68;;;2.58;;
27201;SDS011;14717;46.924;15.474;2023-08-12T19:04:45;3.83;;;2.40;;
27201;SDS011;14717;46.924;15.474;2023-08-12T19:07:11;3.60;;;2.35;;
27201;SDS011;14717;46.924;15.474;2023-08-12T19:09:36;5.13;;;2.63;;
27201;SDS011;14717;46.924;15.474;2023-08-12T19:12:01;3.97;;;2.58;;
27201;SDS011;14717;46.924;15.474;2023-08-12T19:14:27;5.63;;;2.90;;
27201;SDS011;14717;46.924;15.474;2023-08-12T19:16:52;5.35;;;3.03;;
27201;SDS011;14717;46.924;15.474;2023-08-12T19:19:17;5.07;;;2.58;;
27201;SDS011;14717;46.924;15.474;2023-08-12T19:21:43;4.55;;;2.33;;
27201;SDS011;14717;46.924;15.474;2023-08-12T19:24:08;3.45;;;2.35;;
27201;SDS011;14717;46.924;15.474;2023-08-12T19:26:34;4.20;;;2.30;;
27201;SDS011;14717;46.924;15.474;2023-08-12T19:29:00;3.90;;;2.67;;
27201;SDS011;14717;46.924;15.474;2023-08-12T19:31:26;5.32;;;2.70;;
27201;SDS011;14717;46.924;15.474;2023-08-12T19:33:52;4.43;;;2.95;;
27201;SDS011;14717;46.924;15.474;2023-08-12T19:36:18;5.57;;;2.70;;
27201;SDS011;14717;46.924;15.474;2023-08-12T19:38:44;4.28;;;2.75;;
27201;SDS011;14717;46.924;15.474;2023-08-12T19:41:09;3.95;;;2.75;;
27201;SDS011;14717;46.924;15.474;2023-08-12T19:43:35;4.85;;;2.50;;
27201;SDS011;14717;46.924;15.474;2023-08-12T19:46:01;3.53;;;2.55;;
27201;SDS011;14717;46.924;15.474;2023-08-12T19:48:26;3.97;;;2.60;;
27201;SDS011;14717;46.924;15.474;2023-08-12T19:50:52;4.63;;;2.65;;
27201;SDS011;14717;46.924;15.474;2023-08-12T19:53:21;5.97;;;2.65;;
27201;SDS011;14717;46.924;15.474;2023-08-12T19:55:46;4.63;;;2.50;;
27201;SDS011;14717;46.924;15.474;2023-08-12T19:58:12;3.30;;;2.33;;
27201;SDS011;14717;46.924;15.474;2023-08-12T20:00:39;5.28;;;2.80;;
27201;SDS011;14717;46.924;15.474;2023-08-12T20:03:05;5.43;;;2.70;;
27201;SDS011;14717;46.924;15.474;2023-08-12T20:05:30;3.95;;;2.50;;
27201;SDS011;14717;46.924;15.474;2023-08-12T20:07:56;3.92;;;2.65;;
27201;SDS011;14717;46.924;15.474;2023-08-12T20:10:22;5.97;;;2.80;;
27201;SDS011;14717;46.924;15.474;2023-08-12T20:12:48;4.32;;;2.50;;
27201;SDS011;14717;46.924;15.474;2023-08-12T20:15:14;3.92;;;2.55;;
27201;SDS011;14717;46.924;15.474;2023-08-12T20:17:39;5.15;;;2.72;;
27201;SDS011;14717;46.924;15.474;2023-08-12T20:20:05;4.57;;;2.83;;
27201;SDS011;14717;46.924;15.474;2023-08-12T20:22:36;7.30;;;3.38;;
27201;SDS011;14717;46.924;15.474;2023-08-12T20:25:03;5.78;;;2.70;;
27201;SDS011;14717;46.924;15.474;2023-08-12T20:27:30;4.53;;;2.78;;
27201;SDS011;14717;46.924;15.474;2023-08-12T20:29:56;4.72;;;2.88;;
27201;SDS011;14717;46.924;15.474;2023-08-12T20:32:21;4.68;;;3.00;;
27201;SDS011;14717;46.924;15.474;2023-08-12T20:34:53;3.95;;;2.70;;
27201;SDS011;14717;46.924;15.474;2023-08-12T20:37:18;5.05;;;3.30;;
27201;SDS011;14717;46.924;15.474;2023-08-12T20:39:44;5.53;;;3.20;;
27201;SDS011;14717;46.924;15.474;2023-08-12T20:42:09;4.57;;;2.60;;
27201;SDS011;14717;46.924;15.474;2023-08-12T20:44:34;6.38;;;2.70;;
27201;SDS011;14717;46.924;15.474;2023-08-12T20:47:00;4.20;;;2.80;;
27201;SDS011;14717;46.924;15.474;2023-08-12T20:49:25;3.88;;;2.67;;